createdAt,value
2019-04-02T00:01:37.451Z,1.70
2019-04-02T00:04:23.168Z,0.75
2019-04-02T00:07:08.879Z,0.40
2019-04-02T00:09:54.917Z,0.60
2019-04-02T00:12:40.694Z,0.60
2019-04-02T00:15:26.935Z,0.65
2019-04-02T00:18:14.627Z,0.55
2019-04-02T00:21:02.330Z,1.20
2019-04-02T00:23:48.118Z,0.30
2019-04-02T00:26:33.777Z,0.93
2019-04-02T00:29:19.179Z,0.78
2019-04-02T00:32:05.175Z,1.12
2019-04-02T00:34:51.239Z,0.40
2019-04-02T00:37:37.467Z,0.82
2019-04-02T00:40:23.750Z,0.70
2019-04-02T00:43:09.717Z,0.98
2019-04-02T00:45:55.320Z,1.27
2019-04-02T00:48:41.613Z,1.02
2019-04-02T00:51:27.207Z,1.12
2019-04-02T00:54:13.647Z,0.60
2019-04-02T00:56:59.253Z,0.57
2019-04-02T00:59:44.945Z,1.27
2019-04-02T01:02:30.538Z,0.47
2019-04-02T01:05:18.559Z,0.85
2019-04-02T01:08:04.503Z,0.65
2019-04-02T01:10:51.217Z,0.60
2019-04-02T01:13:37.693Z,1.65
2019-04-02T01:16:23.477Z,1.05
2019-04-02T01:19:09.592Z,0.80
2019-04-02T01:21:55.433Z,1.00
2019-04-02T01:24:41.275Z,2.83
2019-04-02T01:27:26.988Z,0.40
2019-04-02T01:30:12.972Z,0.68
2019-04-02T01:32:58.959Z,1.27
2019-04-02T01:35:44.512Z,0.78
2019-04-02T01:38:30.280Z,0.95
2019-04-02T01:41:15.857Z,1.07
2019-04-02T01:44:01.598Z,2.25
2019-04-02T01:46:47.267Z,1.22
2019-04-02T01:49:33.479Z,1.62
2019-04-02T01:52:19.243Z,2.27
2019-04-02T01:55:05.069Z,1.35
2019-04-02T01:57:50.729Z,1.92
2019-04-02T02:00:36.836Z,1.98
2019-04-02T02:03:22.574Z,1.95
2019-04-02T02:06:08.534Z,1.10
2019-04-02T02:08:54.135Z,1.30
2019-04-02T02:11:39.924Z,1.27
2019-04-02T02:14:27.273Z,1.57
2019-04-02T02:17:13.363Z,1.50
2019-04-02T02:19:59.596Z,1.95
2019-04-02T02:22:45.320Z,0.90
2019-04-02T02:25:31.363Z,1.65
2019-04-02T02:28:17.132Z,1.72
2019-04-02T02:31:06.566Z,1.60
2019-04-02T02:33:50.478Z,2.10
2019-04-02T02:36:36.180Z,2.30
2019-04-02T02:39:21.783Z,1.67
2019-04-02T02:42:12.138Z,1.65
2019-04-02T02:44:58.888Z,2.33
2019-04-02T02:47:46.043Z,3.62
2019-04-02T02:50:32.617Z,1.52
2019-04-02T02:53:19.417Z,1.92
2019-04-02T02:56:06.001Z,2.72
2019-04-02T02:58:51.508Z,1.60
2019-04-02T03:01:38.446Z,1.30
2019-04-02T03:04:24.597Z,2.33
2019-04-02T03:07:10.332Z,1.67
2019-04-02T03:09:56.526Z,1.52
2019-04-02T03:12:42.308Z,2.35
2019-04-02T03:15:27.906Z,2.47
2019-04-02T03:18:13.729Z,2.77
2019-04-02T03:20:59.830Z,1.72
2019-04-02T03:23:48.058Z,3.02
2019-04-02T03:26:33.410Z,2.12
2019-04-02T03:29:19.063Z,1.70
2019-04-02T03:32:08.881Z,1.80
2019-04-02T03:34:57.770Z,1.55
2019-04-02T03:37:39.986Z,1.65
2019-04-02T03:40:27.041Z,3.02
2019-04-02T03:43:13.031Z,2.08
2019-04-02T03:45:58.843Z,2.25
2019-04-02T03:48:44.937Z,2.02
2019-04-02T03:51:31.136Z,1.90
2019-04-02T03:54:16.671Z,2.17
2019-04-02T03:57:02.763Z,2.47
2019-04-02T03:59:48.862Z,2.00
2019-04-02T04:02:36.752Z,2.92
2019-04-02T04:05:24.515Z,2.60
2019-04-02T04:08:12.200Z,1.82
2019-04-02T04:11:03.448Z,2.55
2019-04-02T04:13:51.456Z,2.87
2019-04-02T04:16:40.649Z,2.10
2019-04-02T04:19:25.372Z,2.08
2019-04-02T04:22:12.582Z,2.45
2019-04-02T04:24:59.723Z,2.25
2019-04-02T04:27:45.971Z,1.75
2019-04-02T04:30:32.444Z,1.57
2019-04-02T04:33:19.028Z,2.72
2019-04-02T04:36:05.472Z,2.08
2019-04-02T04:38:53.042Z,2.60
2019-04-02T04:41:39.302Z,2.05
2019-04-02T04:44:25.685Z,1.92
2019-04-02T04:47:11.559Z,2.25
2019-04-02T04:49:58.377Z,2.42
2019-04-02T04:52:45.423Z,3.50
2019-04-02T04:55:31.037Z,3.50
2019-04-02T04:58:17.193Z,2.67
2019-04-02T05:01:02.828Z,1.87
2019-04-02T05:04:24.994Z,2.37
2019-04-02T05:07:10.633Z,2.10
2019-04-02T05:09:56.459Z,3.58
2019-04-02T05:12:42.053Z,2.58
2019-04-02T05:15:27.652Z,2.08
2019-04-02T05:18:13.225Z,1.95
2019-04-02T05:20:59.350Z,2.75
2019-04-02T05:23:45.716Z,2.60
2019-04-02T05:26:31.383Z,2.55
2019-04-02T05:29:16.948Z,4.03
2019-04-02T05:32:02.635Z,3.10
2019-04-02T05:34:48.215Z,4.85
2019-04-02T05:37:34.363Z,2.50
2019-04-02T05:40:20.176Z,5.47
2019-04-02T05:43:05.992Z,2.47
2019-04-02T05:45:51.795Z,3.50
2019-04-02T05:48:39.039Z,2.17
2019-04-02T05:51:25.216Z,2.62
2019-04-02T05:54:12.631Z,2.40
2019-04-02T05:56:58.237Z,2.45
2019-04-02T05:59:44.011Z,4.37
2019-04-02T06:02:30.064Z,2.55
2019-04-02T06:05:18.157Z,2.30
2019-04-02T06:08:04.570Z,3.75
2019-04-02T06:10:51.284Z,3.95
2019-04-02T06:13:36.720Z,1.95
2019-04-02T06:16:23.223Z,2.98
2019-04-02T06:19:10.196Z,2.58
2019-04-02T06:21:56.389Z,2.55
2019-04-02T06:24:42.605Z,2.25
2019-04-02T06:27:28.633Z,3.05
2019-04-02T06:30:15.064Z,2.95
2019-04-02T06:33:01.769Z,2.98
2019-04-02T06:35:49.123Z,2.92
2019-04-02T06:38:35.272Z,3.65
2019-04-02T06:41:21.562Z,2.35
2019-04-02T06:44:08.794Z,2.33
2019-04-02T06:46:54.807Z,2.77
2019-04-02T06:50:03.239Z,3.22
2019-04-02T06:52:50.228Z,2.00
2019-04-02T06:55:36.888Z,3.10
2019-04-02T06:58:22.416Z,7.60
2019-04-02T07:01:25.733Z,3.55
2019-04-02T07:03:56.472Z,5.10
2019-04-02T07:06:42.249Z,4.22
2019-04-02T07:09:30.847Z,2.80
2019-04-02T07:12:15.542Z,2.17
2019-04-02T07:15:01.151Z,2.83
2019-04-02T07:17:47.383Z,2.58
2019-04-02T07:20:33.782Z,2.27
2019-04-02T07:23:20.920Z,2.15
2019-04-02T07:26:07.131Z,4.17
2019-04-02T07:28:54.443Z,3.47
2019-04-02T07:31:43.668Z,3.27
2019-04-02T07:34:29.393Z,3.50
2019-04-02T07:37:14.995Z,2.58
2019-04-02T07:40:00.596Z,2.70
2019-04-02T07:42:46.277Z,2.72
2019-04-02T07:45:31.975Z,3.25
2019-04-02T07:48:17.677Z,2.50
2019-04-02T07:51:03.383Z,2.42
2019-04-02T07:53:50.005Z,6.67
2019-04-02T07:56:37.300Z,2.55
2019-04-02T07:59:23.477Z,2.92
2019-04-02T08:02:09.187Z,2.60
2019-04-02T08:04:54.804Z,5.60
2019-04-02T08:07:41.463Z,2.80
2019-04-02T08:10:27.103Z,5.12
2019-04-02T08:13:12.707Z,3.87
2019-04-02T08:15:58.447Z,3.22
2019-04-02T08:18:44.382Z,3.15
2019-04-02T08:21:30.059Z,2.65
2019-04-02T08:24:16.055Z,4.87
2019-04-02T08:27:02.051Z,2.58
2019-04-02T08:29:48.080Z,5.58
2019-04-02T08:32:33.860Z,3.87
2019-04-02T08:35:19.847Z,4.72
2019-04-02T08:38:08.016Z,4.67
2019-04-02T08:40:53.275Z,2.75
2019-04-02T08:43:38.935Z,4.15
2019-04-02T08:46:24.627Z,3.47
2019-04-02T08:49:10.840Z,2.47
2019-04-02T08:51:56.944Z,4.28
2019-04-02T08:54:42.596Z,2.98
2019-04-02T08:57:28.795Z,4.03
2019-04-02T09:00:15.251Z,3.58
2019-04-02T09:03:01.224Z,3.20
2019-04-02T09:05:46.945Z,3.12
2019-04-02T09:08:32.648Z,3.77
2019-04-02T09:11:28.316Z,3.83
2019-04-02T09:14:07.995Z,5.15
2019-04-02T09:16:53.846Z,3.17
2019-04-02T09:19:39.613Z,3.00
2019-04-02T09:22:25.149Z,5.67
2019-04-02T09:25:11.301Z,5.12
2019-04-02T09:27:57.497Z,3.17
2019-04-02T09:30:43.132Z,2.45
2019-04-02T09:33:28.894Z,3.27
2019-04-02T09:36:14.557Z,3.05
2019-04-02T09:39:00.151Z,5.00
2019-04-02T09:41:46.304Z,2.22
2019-04-02T09:44:31.870Z,3.35
2019-04-02T09:47:17.695Z,5.50
2019-04-02T09:50:04.641Z,4.78
2019-04-02T09:52:51.244Z,2.40
2019-04-02T09:55:48.064Z,4.47
2019-04-02T09:58:24.587Z,4.10
2019-04-02T10:01:13.390Z,5.28
2019-04-02T10:04:00.352Z,3.33
2019-04-02T10:06:45.999Z,4.50
2019-04-02T10:09:34.848Z,4.25
2019-04-02T10:12:19.841Z,4.83
2019-04-02T10:15:05.720Z,2.52
2019-04-02T10:17:51.455Z,3.80
2019-04-02T10:20:37.183Z,4.03
2019-04-02T10:23:22.972Z,3.83
2019-04-02T10:26:09.175Z,5.80
2019-04-02T10:28:56.371Z,7.50
2019-04-02T10:31:42.159Z,7.33
2019-04-02T10:34:27.768Z,3.42
2019-04-02T10:37:16.439Z,3.65
2019-04-02T10:40:02.226Z,2.55
2019-04-02T10:42:49.074Z,2.95
2019-04-02T10:45:37.525Z,5.87
2019-04-02T10:48:22.876Z,5.08
2019-04-02T10:51:10.850Z,4.45
2019-04-02T10:53:57.611Z,2.92
2019-04-02T10:56:43.685Z,2.90
2019-04-02T10:59:29.855Z,7.80
2019-04-02T11:02:15.549Z,3.45
2019-04-02T11:05:03.137Z,3.67
2019-04-02T11:07:49.186Z,4.20
2019-04-02T11:10:35.608Z,3.85
2019-04-02T11:13:22.098Z,3.17
2019-04-02T11:16:08.468Z,3.25
2019-04-02T11:18:54.179Z,4.05
2019-04-02T11:21:40.388Z,4.42
2019-04-02T11:24:28.068Z,4.05
2019-04-02T11:27:14.063Z,5.83
2019-04-02T11:30:00.197Z,6.30
2019-04-02T11:32:45.895Z,7.08
2019-04-02T11:35:31.636Z,5.83
2019-04-02T11:38:17.770Z,3.58
2019-04-02T11:41:03.603Z,4.55
2019-04-02T11:43:49.307Z,3.67
2019-04-02T11:46:34.939Z,7.22
2019-04-02T11:49:21.071Z,5.60
2019-04-02T11:52:06.646Z,7.17
2019-04-02T11:54:52.807Z,4.67
2019-04-02T11:57:41.056Z,3.75
2019-04-02T12:00:28.079Z,4.55
2019-04-02T12:03:13.707Z,5.30
2019-04-02T12:05:59.612Z,6.55
2019-04-02T12:08:45.236Z,5.08
2019-04-02T12:11:31.599Z,6.15
2019-04-02T12:14:17.207Z,5.03
2019-04-02T12:17:02.988Z,6.58
2019-04-02T12:19:48.539Z,4.30
2019-04-02T12:22:34.635Z,6.80
2019-04-02T12:25:20.243Z,5.78
2019-04-02T12:28:06.816Z,3.05
2019-04-02T12:30:53.521Z,8.43
2019-04-02T12:33:39.393Z,7.95
2019-04-02T12:36:24.995Z,7.17
2019-04-02T12:39:11.940Z,3.80
2019-04-02T12:41:58.667Z,4.45
2019-04-02T12:44:46.352Z,3.75
2019-04-02T12:47:32.222Z,4.87
2019-04-02T12:50:18.011Z,5.53
2019-04-02T12:53:03.815Z,4.53
2019-04-02T12:55:49.830Z,3.42
2019-04-02T12:58:35.512Z,4.55
2019-04-02T13:01:21.669Z,4.85
2019-04-02T13:04:07.439Z,5.67
2019-04-02T13:06:53.143Z,7.03
2019-04-02T13:09:38.800Z,4.45
2019-04-02T13:12:24.328Z,4.25
2019-04-02T13:15:10.009Z,6.28
2019-04-02T13:17:56.443Z,5.42
2019-04-02T13:20:42.195Z,3.92
2019-04-02T13:23:28.208Z,5.35
2019-04-02T13:26:14.015Z,4.58
2019-04-02T13:28:59.739Z,5.67
2019-04-02T13:31:45.975Z,7.45
2019-04-02T13:34:32.019Z,6.70
2019-04-02T13:37:18.581Z,5.37
2019-04-02T13:40:06.033Z,9.73
2019-04-02T13:42:52.707Z,3.37
2019-04-02T13:45:38.759Z,4.28
2019-04-02T13:48:24.419Z,7.80
2019-04-02T13:51:10.093Z,3.50
2019-04-02T13:53:55.651Z,3.75
2019-04-02T13:56:41.855Z,5.35
2019-04-02T13:59:27.431Z,6.08
2019-04-02T14:02:13.972Z,3.80
2019-04-02T14:04:59.800Z,4.67
2019-04-02T14:07:45.715Z,5.90
2019-04-02T14:10:32.682Z,6.17
2019-04-02T14:13:18.752Z,3.40
2019-04-02T14:16:04.808Z,3.58
2019-04-02T14:18:50.687Z,5.20
2019-04-02T14:21:36.287Z,5.72
2019-04-02T14:24:21.975Z,5.30
2019-04-02T14:27:07.631Z,5.37
2019-04-02T14:29:53.500Z,4.45
2019-04-02T14:32:39.804Z,4.08
2019-04-02T14:35:26.156Z,8.73
2019-04-02T14:38:12.740Z,5.17
2019-04-02T14:40:59.100Z,6.60
2019-04-02T14:43:45.197Z,4.53
2019-04-02T14:46:30.990Z,5.35
2019-04-02T14:49:16.539Z,4.65
2019-04-02T14:52:02.263Z,3.77
2019-04-02T14:54:48.460Z,8.25
2019-04-02T14:57:34.139Z,3.75
2019-04-02T15:00:19.799Z,5.28
2019-04-02T15:03:06.087Z,5.08
2019-04-02T15:05:51.637Z,5.25
2019-04-02T15:08:38.167Z,4.28
2019-04-02T15:11:24.565Z,2.98
2019-04-02T15:14:10.163Z,3.55
2019-04-02T15:16:55.978Z,4.85
2019-04-02T15:19:42.224Z,4.12
2019-04-02T15:22:28.291Z,4.85
2019-04-02T15:25:13.981Z,3.10
2019-04-02T15:27:59.443Z,5.83
2019-04-02T15:30:45.758Z,3.95
2019-04-02T15:33:31.905Z,4.67
2019-04-02T15:36:18.132Z,4.50
2019-04-02T15:39:05.731Z,3.42
2019-04-02T15:41:51.688Z,5.62
2019-04-02T15:44:37.256Z,3.20
2019-04-02T15:47:23.891Z,3.77
2019-04-02T15:50:10.211Z,3.12
2019-04-02T15:52:57.542Z,4.53
2019-04-02T15:55:43.636Z,6.35
2019-04-02T15:58:30.996Z,3.52
2019-04-02T16:01:17.088Z,26.20
2019-04-02T16:04:03.359Z,3.05
2019-04-02T16:06:48.945Z,7.25
2019-04-02T16:09:34.623Z,11.80
2019-04-02T16:12:20.247Z,3.72
2019-04-02T16:15:06.391Z,3.10
2019-04-02T16:17:54.535Z,5.60
2019-04-02T16:20:40.023Z,3.08
2019-04-02T16:23:25.599Z,7.03
2019-04-02T16:26:13.653Z,5.53
2019-04-02T16:28:59.064Z,5.72
2019-04-02T16:31:44.818Z,4.90
2019-04-02T16:34:38.219Z,3.92
2019-04-02T16:37:19.056Z,6.30
2019-04-02T16:40:05.310Z,3.22
2019-04-02T16:42:51.860Z,5.40
2019-04-02T16:45:38.216Z,3.85
2019-04-02T16:48:23.986Z,5.15
2019-04-02T16:51:09.735Z,7.45
2019-04-02T16:53:55.861Z,5.83
2019-04-02T16:56:41.584Z,5.40
2019-04-02T16:59:27.369Z,4.03
2019-04-02T17:02:13.489Z,4.90
2019-04-02T17:04:59.896Z,3.58
2019-04-02T17:07:45.524Z,4.25
2019-04-02T17:10:32.150Z,3.92
2019-04-02T17:13:17.663Z,5.25
2019-04-02T17:16:03.263Z,4.75
2019-04-02T17:18:48.986Z,4.95
2019-04-02T17:21:39.057Z,4.12
2019-04-02T17:24:24.516Z,3.40
2019-04-02T17:27:10.275Z,4.15
2019-04-02T17:29:55.803Z,6.33
2019-04-02T17:32:41.511Z,4.00
2019-04-02T17:35:27.825Z,2.58
2019-04-02T17:38:14.116Z,7.15
2019-04-02T17:41:00.208Z,3.77
2019-04-02T17:43:45.901Z,2.37
2019-04-02T17:46:31.474Z,4.20
2019-04-02T17:49:17.365Z,4.92
2019-04-02T17:52:04.654Z,3.25
2019-04-02T17:54:50.471Z,4.37
2019-04-02T17:57:36.316Z,3.50
2019-04-02T18:00:22.593Z,3.65
2019-04-02T18:03:08.602Z,2.58
2019-04-02T18:05:55.892Z,4.55
2019-04-02T18:08:42.975Z,3.02
2019-04-02T18:11:29.383Z,3.67
2019-04-02T18:14:15.076Z,4.00
2019-04-02T18:17:00.759Z,3.37
2019-04-02T18:19:46.440Z,3.08
2019-04-02T18:22:32.075Z,7.40
2019-04-02T18:25:17.647Z,10.15
2019-04-02T18:28:03.500Z,6.47
2019-04-02T18:30:49.163Z,7.33
2019-04-02T18:33:36.138Z,8.88
2019-04-02T18:36:23.630Z,5.75
2019-04-02T18:39:09.636Z,8.95
2019-04-02T18:41:55.729Z,4.87
2019-04-02T18:44:42.503Z,4.87
2019-04-02T18:47:29.041Z,5.92
2019-04-02T18:50:15.034Z,3.20
2019-04-02T18:53:03.161Z,6.85
2019-04-02T18:55:48.781Z,5.15
2019-04-02T18:58:34.896Z,8.05
2019-04-02T19:01:20.527Z,5.22
2019-04-02T19:04:06.620Z,8.18
2019-04-02T19:06:52.866Z,4.58
2019-04-02T19:09:38.503Z,4.10
2019-04-02T19:12:24.466Z,5.33
2019-04-02T19:15:11.632Z,8.98
2019-04-02T19:17:57.731Z,4.83
2019-04-02T19:20:43.401Z,4.35
2019-04-02T19:23:31.105Z,7.87
2019-04-02T19:26:16.944Z,9.03
2019-04-02T19:29:03.549Z,4.97
2019-04-02T19:31:49.062Z,7.95
2019-04-02T19:34:34.831Z,6.40
2019-04-02T19:37:21.006Z,9.38
2019-04-02T19:40:06.923Z,13.48
2019-04-02T19:42:53.585Z,8.80
2019-04-02T19:45:40.982Z,4.78
2019-04-02T19:48:27.765Z,11.48
2019-04-02T19:51:17.777Z,8.20
2019-04-02T19:54:02.060Z,9.63
2019-04-02T19:56:50.271Z,11.18
2019-04-02T19:59:35.321Z,6.80
2019-04-02T20:02:22.099Z,7.42
2019-04-02T20:05:07.690Z,6.85
2019-04-02T20:07:53.872Z,7.25
2019-04-02T20:10:39.689Z,6.62
2019-04-02T20:13:25.891Z,4.87
2019-04-02T20:16:12.162Z,5.78
2019-04-02T20:18:58.502Z,9.90
2019-04-02T20:21:44.203Z,10.60
2019-04-02T20:24:32.303Z,7.25
2019-04-02T20:27:19.069Z,10.25
2019-04-02T20:30:05.875Z,7.37
2019-04-02T20:32:51.504Z,7.62
2019-04-02T20:35:38.617Z,9.33
2019-04-02T20:38:24.441Z,8.05
2019-04-02T20:41:11.953Z,10.38
2019-04-02T20:43:59.296Z,8.05
2019-04-02T20:46:45.551Z,9.85
2019-04-02T20:49:31.639Z,6.70
2019-04-02T20:52:17.287Z,6.05
2019-04-02T20:55:03.065Z,9.05
2019-04-02T20:57:49.341Z,10.20
2019-04-02T21:00:35.464Z,9.03
2019-04-02T21:03:21.867Z,10.00
2019-04-02T21:06:08.228Z,12.58
2019-04-02T21:08:53.925Z,8.15
2019-04-02T21:11:39.448Z,8.33
2019-04-02T21:14:27.723Z,8.23
2019-04-02T21:17:13.860Z,6.95
2019-04-02T21:19:59.674Z,9.58
2019-04-02T21:22:45.257Z,14.58
2019-04-02T21:25:34.030Z,7.85
2019-04-02T21:28:19.852Z,9.23
2019-04-02T21:31:05.995Z,9.40
2019-04-02T21:33:51.601Z,7.10
2019-04-02T21:36:38.919Z,9.68
2019-04-02T21:39:25.104Z,8.38
2019-04-02T21:42:10.864Z,11.90
2019-04-02T21:44:57.149Z,12.35
2019-04-02T21:47:42.831Z,8.00
2019-04-02T21:50:29.007Z,8.13
2019-04-02T21:53:14.785Z,15.85
2019-04-02T21:56:00.423Z,7.75
2019-04-02T21:58:46.325Z,11.43
2019-04-02T22:01:32.454Z,11.25
2019-04-02T22:04:18.657Z,9.55
2019-04-02T22:07:05.468Z,10.30
2019-04-02T22:09:51.676Z,8.50
2019-04-02T22:12:37.233Z,8.45
2019-04-02T22:15:23.583Z,10.00
2019-04-02T22:18:09.123Z,10.40
2019-04-02T22:20:54.991Z,10.03
2019-04-02T22:23:42.911Z,7.47
2019-04-02T22:26:28.263Z,7.08
2019-04-02T22:29:16.010Z,10.32
2019-04-02T22:32:13.847Z,6.47
2019-04-02T22:34:50.538Z,9.93
2019-04-02T22:37:36.944Z,11.03
2019-04-02T22:40:24.671Z,9.35
2019-04-02T22:43:10.761Z,7.97
2019-04-02T22:45:56.505Z,6.78
2019-04-02T22:48:42.632Z,8.55
2019-04-02T22:51:28.564Z,8.63
2019-04-02T22:54:14.470Z,8.78
2019-04-02T22:57:02.395Z,8.85
2019-04-02T22:59:48.329Z,11.55
2019-04-02T23:02:34.123Z,9.75
2019-04-02T23:05:19.699Z,10.93
2019-04-02T23:08:05.391Z,10.43
2019-04-02T23:10:51.647Z,8.55
2019-04-02T23:13:37.208Z,10.38
2019-04-02T23:16:26.284Z,8.10
2019-04-02T23:19:12.550Z,9.83
2019-04-02T23:21:58.814Z,11.15
2019-04-02T23:24:47.068Z,8.13
2019-04-02T23:27:32.260Z,7.72
2019-04-02T23:30:20.310Z,8.58
2019-04-02T23:33:06.633Z,7.35
2019-04-02T23:35:52.321Z,10.25
2019-04-02T23:38:38.325Z,15.45
2019-04-02T23:41:24.865Z,9.38
2019-04-02T23:44:10.889Z,15.60
2019-04-02T23:46:56.943Z,7.37
2019-04-02T23:49:42.762Z,12.95
2019-04-02T23:52:28.787Z,7.80
2019-04-02T23:55:14.374Z,7.45
2019-04-02T23:58:00.207Z,9.60
